Rufe, Oklahoma
Current Conditions -  °F | °C
As of 12:35 PM on Monday 20 Oct 2014 (Local Time) from K4O4 Reporting Station
Clear Clear  
Wind Chill: 72°   Ceiling: Unl
Heat Index: 72°   Visibility: 10mi
Dew Point: 52°   Wind: 5mph
Humidity: 50%   Direction: 200°SSW
Pressure: 30.1"   Gusts: NA
Location:  34.12°N, 95.14°W
Report Text: K4O4 201735Z AUTO 20004KT 10SM CLR 22/11 A3010 RMK AO2
Loading
Personal Weather Stations






























Interactive Weather Map
Tropical Storm Tracking
New forecast layout! Learn more

10-Day Weather Forecast

Advertisements
Track Severe Weather on mobile